createdAt,value
2019-04-11T00:04:06.021Z,2.9
2019-04-11T00:09:08.170Z,2.9
2019-04-11T00:14:09.468Z,2.9
2019-04-11T00:19:12.287Z,2.9
2019-04-11T00:29:16.452Z,2.7
2019-04-11T00:34:18.731Z,2.5
2019-04-11T00:39:21.537Z,2.5
2019-04-11T00:44:23.535Z,2.4
2019-04-11T00:49:26.203Z,2.4
2019-04-11T00:54:28.918Z,2.3
2019-04-11T00:59:30.216Z,2.2
2019-04-11T01:04:32.779Z,2.2
2019-04-11T01:09:34.868Z,2.2
2019-04-11T01:14:37.371Z,2.1
2019-04-11T01:19:40.593Z,2
2019-04-11T01:24:42.055Z,2
2019-04-11T01:29:44.069Z,1.9
2019-04-11T01:34:46.252Z,1.8
2019-04-11T01:39:49.552Z,1.8
2019-04-11T01:44:50.838Z,1.7
2019-04-11T01:49:53.089Z,1.7
2019-04-11T01:54:56.369Z,1.6
2019-04-11T01:59:57.785Z,1.6
2019-04-11T02:05:00.748Z,1.6
2019-04-11T02:10:02.631Z,1.6
2019-04-11T02:15:04.589Z,1.6
2019-04-11T02:20:07.012Z,1.6
2019-04-11T02:25:09.153Z,1.6
2019-04-11T02:30:13.538Z,1.6
2019-04-11T02:35:15.216Z,1.6
2019-04-11T02:40:17.678Z,1.5
2019-04-11T02:45:31.134Z,1.5
2019-04-11T02:45:56.999Z,1.5
2019-04-11T02:50:22.008Z,1.4
2019-04-11T02:55:22.977Z,1.4
2019-04-11T03:00:26.606Z,1.4
2019-04-11T03:05:28.747Z,1.3
2019-04-11T03:10:31.475Z,1.3
2019-04-11T03:16:12.845Z,1.3
2019-04-11T03:16:38.126Z,1.3
2019-04-11T03:20:39.258Z,1.3
2019-04-11T03:25:38.387Z,1.2
2019-04-11T03:30:59.009Z,1.2
2019-04-11T03:31:47.414Z,1.2
2019-04-11T03:32:17.042Z,1.2
2019-04-11T03:41:00.560Z,1.1
2019-04-11T03:41:26.791Z,1.1
2019-04-11T03:41:59.293Z,1.1
2019-04-11T03:46:05.299Z,1.1
2019-04-11T03:46:30.876Z,1.1
2019-04-11T03:47:02.199Z,1.1
2019-04-11T03:50:49.079Z,1
2019-04-11T03:55:51.643Z,1
2019-04-11T04:00:56.798Z,0.9
2019-04-11T04:05:56.941Z,0.9
2019-04-11T04:10:58.353Z,0.9
2019-04-11T04:16:10.419Z,0.9
2019-04-11T04:21:02.114Z,0.9
2019-04-11T04:26:06.223Z,0.8
2019-04-11T04:31:06.902Z,0.7
2019-04-11T04:36:10.887Z,0.7
2019-04-11T04:41:22.472Z,0.7
2019-04-11T04:46:55.359Z,0.7
2019-04-11T04:51:17.627Z,0.7
2019-04-11T04:56:22.845Z,0.6
2019-04-11T05:01:21.739Z,0.6
2019-04-11T05:06:24.114Z,0.6
2019-04-11T05:11:26.217Z,0.6
2019-04-11T05:16:27.217Z,0.6
2019-04-11T05:21:29.671Z,0.7
2019-04-11T05:26:31.818Z,0.7
2019-04-11T05:31:34.400Z,0.9
2019-04-11T05:36:36.619Z,1
2019-04-11T05:41:42.074Z,1.2
2019-04-11T05:46:49.889Z,1.3
2019-04-11T05:51:45.726Z,1.5
2019-04-11T05:56:46.464Z,1.9
2019-04-11T06:01:48.804Z,2.1
2019-04-11T06:06:50.645Z,2.4
2019-04-11T06:11:55.002Z,2.7
2019-04-11T06:16:56.161Z,3
2019-04-11T06:21:58.104Z,3.2
2019-04-11T06:26:59.437Z,3.5
2019-04-11T06:32:01.624Z,3.6
2019-04-11T06:37:03.921Z,3.8
2019-04-11T06:42:07.491Z,3.9
2019-04-11T06:47:08.450Z,4.2
2019-04-11T06:52:10.825Z,4.2
2019-04-11T06:57:13.970Z,4.7
2019-04-11T07:02:19.528Z,4.9
2019-04-11T07:07:18.498Z,5.4
2019-04-11T07:12:19.951Z,5.7
2019-04-11T07:17:23.036Z,5.8
2019-04-11T07:22:25.212Z,5.9
2019-04-11T07:27:27.892Z,6.3
2019-04-11T07:32:29.914Z,6.6
2019-04-11T07:37:32.633Z,6.7
2019-04-11T07:42:35.657Z,7
2019-04-11T07:47:37.151Z,7.2
2019-04-11T07:52:38.389Z,7.7
2019-04-11T07:57:40.680Z,7.9
2019-04-11T08:02:43.314Z,7.9
2019-04-11T08:07:45.249Z,8.3
2019-04-11T08:12:47.976Z,8.4
2019-04-11T08:17:50.155Z,8.7
2019-04-11T08:22:51.987Z,8.7
2019-04-11T08:27:58.290Z,8.8
2019-04-11T08:32:56.582Z,9.4
2019-04-11T08:38:00.925Z,9.4
2019-04-11T08:43:02.525Z,9.7
2019-04-11T08:48:04.487Z,10.1
2019-04-11T08:53:06.622Z,10.4
2019-04-11T08:58:08.562Z,10.4
2019-04-11T09:03:10.412Z,10.4
2019-04-11T09:08:12.697Z,10.8
2019-04-11T09:13:15.306Z,10.9
2019-04-11T09:18:17.772Z,11.2
2019-04-11T09:23:19.792Z,11.1
2019-04-11T09:28:21.920Z,11.4
2019-04-11T09:33:24.677Z,11.5
2019-04-11T09:43:28.629Z,12.3
2019-04-11T09:48:31.507Z,12
2019-04-11T09:53:34.442Z,12.2
2019-04-11T09:58:35.782Z,12.5
2019-04-11T10:03:38.774Z,12.7
2019-04-11T10:08:41.656Z,12.9
2019-04-11T10:13:42.800Z,13.3
2019-04-11T10:18:44.816Z,13.1
2019-04-11T10:23:47.176Z,12.9
2019-04-11T10:28:49.634Z,13.7
2019-04-11T10:33:51.663Z,14.6
2019-04-11T10:38:54.891Z,13.9
2019-04-11T10:43:57.153Z,13.7
2019-04-11T10:49:17.800Z,14.2
2019-04-11T10:54:16.942Z,15
2019-04-11T10:59:19.557Z,15.5
2019-04-11T11:04:21.443Z,16
2019-04-11T11:09:24.008Z,16.200001
2019-04-11T11:14:26.978Z,15.8
2019-04-11T11:19:45.625Z,13.2
2019-04-11T11:20:34.260Z,13.2
2019-04-11T11:24:31.624Z,14.4
2019-04-11T11:29:32.993Z,15.4
2019-04-11T11:34:35.245Z,15.5
2019-04-11T11:39:37.594Z,16.200001
2019-04-11T11:44:39.792Z,16.1
2019-04-11T11:49:48.701Z,16.5
2019-04-11T11:54:44.381Z,16.299999
2019-04-11T11:59:46.667Z,16.1
2019-04-11T12:04:48.965Z,14
2019-04-11T12:09:51.238Z,14.6
2019-04-11T12:14:53.837Z,15.2
2019-04-11T12:20:04.800Z,15.4
2019-04-11T12:24:58.659Z,15
2019-04-11T12:30:03.080Z,13.7
2019-04-11T12:35:04.081Z,14.8
2019-04-11T12:40:05.094Z,15.6
2019-04-11T12:45:07.474Z,16
2019-04-11T12:50:09.798Z,16.299999
2019-04-11T12:55:12.052Z,16.700001
2019-04-11T13:00:14.250Z,15.7
2019-04-11T13:05:16.754Z,16.4
2019-04-11T13:10:18.809Z,16.700001
2019-04-11T13:15:21.197Z,16.799999
2019-04-11T13:20:23.471Z,16.799999
2019-04-11T13:25:25.827Z,17.1
2019-04-11T13:30:27.957Z,16.700001
2019-04-11T13:35:30.301Z,15.9
2019-04-11T13:40:32.586Z,15.7
2019-04-11T13:45:34.907Z,15.8
2019-04-11T13:50:37.187Z,15.3
2019-04-11T13:55:41.964Z,16.200001
2019-04-11T14:00:41.857Z,16.6
2019-04-11T14:05:44.044Z,15.8
2019-04-11T14:10:46.325Z,15.9
2019-04-11T14:15:48.598Z,15.8
2019-04-11T14:20:50.947Z,15.2
2019-04-11T14:25:53.177Z,15.9
2019-04-11T14:30:55.603Z,16.6
2019-04-11T14:35:57.874Z,15.6
2019-04-11T14:41:01.740Z,15.1
2019-04-11T14:46:02.440Z,15.2
2019-04-11T14:51:04.666Z,15
2019-04-11T14:56:07.014Z,14.6
2019-04-11T15:01:09.264Z,15.4
2019-04-11T15:06:14.562Z,15.1
2019-04-11T15:11:14.010Z,15.1
2019-04-11T15:16:16.244Z,14.8
2019-04-11T15:21:18.461Z,15.2
2019-04-11T15:26:20.828Z,15.3
2019-04-11T15:31:23.154Z,15.2
2019-04-11T15:36:27.617Z,14.8
2019-04-11T15:41:27.760Z,14.7
2019-04-11T15:46:30.047Z,14.7
2019-04-11T15:51:34.858Z,14.2
2019-04-11T15:56:37.859Z,13.8
2019-04-11T16:01:36.802Z,13.6
2019-04-11T16:11:41.534Z,13.4
2019-04-11T16:16:43.703Z,13.6
2019-04-11T16:21:45.958Z,13.4
2019-04-11T16:26:48.292Z,13
2019-04-11T16:31:50.596Z,12.9
2019-04-11T16:36:52.876Z,12.4
2019-04-11T16:41:55.274Z,11.8
2019-04-11T16:46:57.663Z,11.5
2019-04-11T16:51:59.779Z,11.2
2019-04-11T16:57:02.101Z,10.9
2019-04-11T17:02:04.385Z,10.8
2019-04-11T17:07:06.784Z,10.8
2019-04-11T17:12:08.936Z,10.6
2019-04-11T17:17:15.194Z,10.4
2019-04-11T17:22:13.553Z,10.2
2019-04-11T17:27:15.873Z,9.9
2019-04-11T17:32:18.191Z,9.7
2019-04-11T17:37:20.764Z,9.6
2019-04-11T17:42:22.794Z,9.4
2019-04-11T17:47:26.964Z,9.3
2019-04-11T17:52:28.994Z,9.1
2019-04-11T17:57:29.568Z,9
2019-04-11T18:02:31.833Z,8.9
2019-04-11T18:07:34.174Z,8.8
2019-04-11T18:12:36.471Z,8.7
2019-04-11T18:17:38.899Z,8.5
2019-04-11T18:22:41.127Z,8.2
2019-04-11T18:27:43.441Z,8.1
2019-04-11T18:32:45.737Z,8
2019-04-11T18:37:48.014Z,8
2019-04-11T18:42:50.187Z,7.8
2019-04-11T18:47:52.541Z,7.7
2019-04-11T18:52:54.816Z,7.4
2019-04-11T18:57:57.302Z,7.4
2019-04-11T19:02:59.424Z,7.3
2019-04-11T19:08:01.804Z,7.3
2019-04-11T19:13:04.027Z,7.2
2019-04-11T19:18:07.006Z,7.1
2019-04-11T19:23:08.666Z,6.9
2019-04-11T19:28:10.914Z,6.9
2019-04-11T19:33:13.122Z,6.7
2019-04-11T19:38:15.527Z,6.7
2019-04-11T19:43:19.132Z,6.6
2019-04-11T19:48:20.089Z,6.6
2019-04-11T19:53:22.434Z,6.5
2019-04-11T19:58:24.589Z,6.4
2019-04-11T20:03:27.070Z,6.2
2019-04-11T20:08:29.327Z,6.2
2019-04-11T20:13:32.243Z,6.1
2019-04-11T20:18:33.906Z,6
2019-04-11T20:23:36.161Z,5.9
2019-04-11T20:28:38.393Z,5.8
2019-04-11T20:33:40.717Z,5.8
2019-04-11T20:38:44.690Z,5.7
2019-04-11T20:43:45.295Z,5.5
2019-04-11T20:48:47.513Z,5.5
2019-04-11T20:53:49.807Z,5.5
2019-04-11T20:58:52.199Z,5.4
2019-04-11T21:03:54.386Z,5.3
2019-04-11T21:08:56.838Z,5.2
2019-04-11T21:13:59.724Z,5.2
2019-04-11T21:19:01.313Z,5.1
2019-04-11T21:24:03.602Z,5
2019-04-11T21:29:05.936Z,4.9
2019-04-11T21:34:08.125Z,4.8
2019-04-11T21:39:10.620Z,4.7
2019-04-11T21:44:12.776Z,4.6
2019-04-11T21:49:15.253Z,4.6
2019-04-11T21:54:17.489Z,4.5
2019-04-11T21:59:20.374Z,4.4
2019-04-11T22:04:22.022Z,4.3
2019-04-11T22:09:24.300Z,4.2
2019-04-11T22:14:26.494Z,4.2
2019-04-11T22:19:28.881Z,4.1
2019-04-11T22:24:31.207Z,4
2019-04-11T22:29:33.460Z,3.8
2019-04-11T22:34:35.653Z,3.7
2019-04-11T22:39:38.015Z,3.7
2019-04-11T22:44:40.314Z,3.7
2019-04-11T22:49:42.582Z,3.8
2019-04-11T22:54:44.967Z,3.7
2019-04-11T22:59:47.183Z,3.5
2019-04-11T23:04:49.509Z,3.4
2019-04-11T23:09:51.887Z,3.4
2019-04-11T23:14:54.103Z,3.4
2019-04-11T23:19:56.351Z,3.3
2019-04-11T23:24:58.691Z,3.3
2019-04-11T23:30:00.956Z,3.2
2019-04-11T23:35:03.243Z,3
2019-04-11T23:40:05.527Z,3
2019-04-11T23:45:07.887Z,3
2019-04-11T23:50:10.155Z,3
2019-04-11T23:55:12.380Z,2.9
